sensor_id;sensor_type;location;lat;lon;timestamp;P1;durP1;ratioP1;P2;durP2;ratioP2
920;SDS011;447;51.332;6.778;2022-10-16T00:01:20;2.47;;;2.27;;
920;SDS011;447;51.332;6.778;2022-10-16T00:03:49;2.30;;;1.90;;
920;SDS011;447;51.332;6.778;2022-10-16T00:06:18;4.80;;;2.73;;
920;SDS011;447;51.332;6.778;2022-10-16T00:09:08;3.30;;;2.10;;
920;SDS011;447;51.332;6.778;2022-10-16T00:11:35;2.33;;;1.80;;
920;SDS011;447;51.332;6.778;2022-10-16T00:14:05;3.03;;;2.40;;
920;SDS011;447;51.332;6.778;2022-10-16T00:16:38;3.33;;;2.50;;
920;SDS011;447;51.332;6.778;2022-10-16T00:19:07;3.73;;;2.20;;
920;SDS011;447;51.332;6.778;2022-10-16T00:21:34;3.60;;;2.73;;
920;SDS011;447;51.332;6.778;2022-10-16T00:24:18;4.10;;;2.43;;
920;SDS011;447;51.332;6.778;2022-10-16T00:26:49;3.63;;;2.33;;
920;SDS011;447;51.332;6.778;2022-10-16T00:29:16;3.60;;;2.03;;
920;SDS011;447;51.332;6.778;2022-10-16T00:31:47;2.73;;;2.40;;
920;SDS011;447;51.332;6.778;2022-10-16T00:34:13;3.70;;;2.00;;
920;SDS011;447;51.332;6.778;2022-10-16T00:36:39;2.13;;;1.73;;
920;SDS011;447;51.332;6.778;2022-10-16T00:39:04;3.10;;;1.90;;
920;SDS011;447;51.332;6.778;2022-10-16T00:41:35;3.80;;;2.20;;
920;SDS011;447;51.332;6.778;2022-10-16T00:44:02;2.17;;;1.97;;
920;SDS011;447;51.332;6.778;2022-10-16T00:46:53;2.73;;;1.90;;
920;SDS011;447;51.332;6.778;2022-10-16T00:49:24;3.13;;;2.17;;
920;SDS011;447;51.332;6.778;2022-10-16T00:51:50;2.43;;;2.23;;
920;SDS011;447;51.332;6.778;2022-10-16T00:54:23;2.40;;;1.97;;
920;SDS011;447;51.332;6.778;2022-10-16T00:56:54;2.60;;;2.00;;
920;SDS011;447;51.332;6.778;2022-10-16T00:59:28;3.40;;;1.87;;
920;SDS011;447;51.332;6.778;2022-10-16T01:01:56;2.50;;;1.73;;
920;SDS011;447;51.332;6.778;2022-10-16T01:04:24;4.20;;;1.67;;
920;SDS011;447;51.332;6.778;2022-10-16T01:15:04;7.60;;;2.40;;
920;SDS011;447;51.332;6.778;2022-10-16T01:17:56;2.70;;;1.80;;
920;SDS011;447;51.332;6.778;2022-10-16T01:20:30;4.97;;;1.90;;
920;SDS011;447;51.332;6.778;2022-10-16T01:28:15;2.90;;;1.80;;
920;SDS011;447;51.332;6.778;2022-10-16T01:30:43;2.73;;;1.93;;
920;SDS011;447;51.332;6.778;2022-10-16T01:33:16;2.70;;;1.70;;
920;SDS011;447;51.332;6.778;2022-10-16T01:35:53;2.10;;;1.90;;
920;SDS011;447;51.332;6.778;2022-10-16T01:38:36;2.83;;;1.73;;
920;SDS011;447;51.332;6.778;2022-10-16T01:41:14;6.63;;;1.93;;
920;SDS011;447;51.332;6.778;2022-10-16T01:43:48;3.30;;;1.63;;
920;SDS011;447;51.332;6.778;2022-10-16T01:46:18;2.93;;;1.63;;
920;SDS011;447;51.332;6.778;2022-10-16T01:48:48;3.10;;;1.70;;
920;SDS011;447;51.332;6.778;2022-10-16T01:51:19;4.93;;;1.77;;
920;SDS011;447;51.332;6.778;2022-10-16T01:53:48;2.90;;;1.70;;
920;SDS011;447;51.332;6.778;2022-10-16T01:56:19;4.33;;;1.67;;
920;SDS011;447;51.332;6.778;2022-10-16T01:58:51;2.37;;;1.67;;
920;SDS011;447;51.332;6.778;2022-10-16T02:01:21;2.03;;;1.43;;
920;SDS011;447;51.332;6.778;2022-10-16T02:03:55;1.80;;;1.50;;
920;SDS011;447;51.332;6.778;2022-10-16T02:06:24;2.50;;;2.07;;
920;SDS011;447;51.332;6.778;2022-10-16T02:08:55;1.80;;;1.63;;
920;SDS011;447;51.332;6.778;2022-10-16T02:11:24;1.73;;;1.30;;
920;SDS011;447;51.332;6.778;2022-10-16T02:13:53;3.87;;;2.03;;
920;SDS011;447;51.332;6.778;2022-10-16T02:16:35;2.50;;;1.97;;
920;SDS011;447;51.332;6.778;2022-10-16T02:19:06;3.90;;;2.00;;
920;SDS011;447;51.332;6.778;2022-10-16T02:21:43;4.20;;;1.83;;
920;SDS011;447;51.332;6.778;2022-10-16T02:25:06;2.90;;;1.70;;
920;SDS011;447;51.332;6.778;2022-10-16T02:27:52;2.33;;;2.00;;
920;SDS011;447;51.332;6.778;2022-10-16T02:30:50;2.93;;;1.80;;
920;SDS011;447;51.332;6.778;2022-10-16T02:33:13;3.77;;;2.00;;
920;SDS011;447;51.332;6.778;2022-10-16T02:35:43;2.53;;;1.70;;
920;SDS011;447;51.332;6.778;2022-10-16T02:38:11;2.13;;;1.80;;
920;SDS011;447;51.332;6.778;2022-10-16T02:40:41;2.00;;;1.80;;
920;SDS011;447;51.332;6.778;2022-10-16T02:43:08;1.90;;;1.57;;
920;SDS011;447;51.332;6.778;2022-10-16T02:45:37;2.60;;;1.57;;
920;SDS011;447;51.332;6.778;2022-10-16T02:48:03;1.80;;;1.57;;
920;SDS011;447;51.332;6.778;2022-10-16T02:50:30;4.43;;;1.97;;
920;SDS011;447;51.332;6.778;2022-10-16T02:52:56;1.83;;;1.47;;
920;SDS011;447;51.332;6.778;2022-10-16T02:55:24;1.87;;;1.57;;
920;SDS011;447;51.332;6.778;2022-10-16T02:57:51;2.83;;;1.80;;
920;SDS011;447;51.332;6.778;2022-10-16T03:00:17;3.93;;;1.40;;
920;SDS011;447;51.332;6.778;2022-10-16T03:02:44;2.00;;;1.80;;
920;SDS011;447;51.332;6.778;2022-10-16T03:05:12;2.10;;;1.57;;
920;SDS011;447;51.332;6.778;2022-10-16T03:07:38;1.83;;;1.57;;
920;SDS011;447;51.332;6.778;2022-10-16T03:10:05;1.70;;;1.60;;
920;SDS011;447;51.332;6.778;2022-10-16T03:12:31;2.40;;;1.90;;
920;SDS011;447;51.332;6.778;2022-10-16T03:14:58;4.10;;;1.63;;
920;SDS011;447;51.332;6.778;2022-10-16T03:17:24;3.20;;;1.43;;
920;SDS011;447;51.332;6.778;2022-10-16T03:19:50;2.77;;;1.40;;
920;SDS011;447;51.332;6.778;2022-10-16T03:22:19;1.57;;;1.40;;
920;SDS011;447;51.332;6.778;2022-10-16T03:24:45;2.57;;;1.60;;
920;SDS011;447;51.332;6.778;2022-10-16T03:27:11;3.10;;;1.57;;
920;SDS011;447;51.332;6.778;2022-10-16T03:29:37;3.53;;;1.50;;
920;SDS011;447;51.332;6.778;2022-10-16T03:32:03;2.90;;;1.50;;
920;SDS011;447;51.332;6.778;2022-10-16T03:34:29;2.73;;;1.83;;
920;SDS011;447;51.332;6.778;2022-10-16T03:37:01;2.33;;;1.13;;
920;SDS011;447;51.332;6.778;2022-10-16T03:39:30;2.10;;;1.50;;
920;SDS011;447;51.332;6.778;2022-10-16T03:41:59;2.33;;;1.40;;
920;SDS011;447;51.332;6.778;2022-10-16T03:44:28;1.53;;;1.23;;
920;SDS011;447;51.332;6.778;2022-10-16T03:46:54;2.07;;;1.60;;
920;SDS011;447;51.332;6.778;2022-10-16T03:49:28;1.40;;;1.30;;
920;SDS011;447;51.332;6.778;2022-10-16T03:51:57;1.60;;;1.20;;
920;SDS011;447;51.332;6.778;2022-10-16T03:54:23;2.17;;;1.80;;
920;SDS011;447;51.332;6.778;2022-10-16T03:56:48;2.33;;;1.67;;
920;SDS011;447;51.332;6.778;2022-10-16T03:59:17;1.60;;;1.20;;
920;SDS011;447;51.332;6.778;2022-10-16T04:01:43;2.87;;;1.50;;
920;SDS011;447;51.332;6.778;2022-10-16T04:04:09;1.43;;;1.20;;
920;SDS011;447;51.332;6.778;2022-10-16T04:06:38;1.30;;;1.20;;
920;SDS011;447;51.332;6.778;2022-10-16T04:09:04;1.50;;;1.23;;
920;SDS011;447;51.332;6.778;2022-10-16T04:11:30;1.47;;;1.27;;
920;SDS011;447;51.332;6.778;2022-10-16T04:13:55;1.97;;;1.20;;
920;SDS011;447;51.332;6.778;2022-10-16T04:16:26;2.53;;;1.60;;
920;SDS011;447;51.332;6.778;2022-10-16T04:18:54;2.33;;;1.50;;
920;SDS011;447;51.332;6.778;2022-10-16T04:21:20;2.90;;;1.60;;
920;SDS011;447;51.332;6.778;2022-10-16T04:23:47;1.60;;;1.43;;
920;SDS011;447;51.332;6.778;2022-10-16T04:26:14;4.13;;;1.40;;
920;SDS011;447;51.332;6.778;2022-10-16T04:28:43;1.97;;;1.30;;
920;SDS011;447;51.332;6.778;2022-10-16T04:31:12;1.57;;;1.47;;
920;SDS011;447;51.332;6.778;2022-10-16T04:33:38;2.63;;;1.40;;
920;SDS011;447;51.332;6.778;2022-10-16T04:36:04;2.33;;;1.27;;
920;SDS011;447;51.332;6.778;2022-10-16T04:38:32;2.07;;;1.10;;
920;SDS011;447;51.332;6.778;2022-10-16T04:41:05;1.60;;;1.30;;
920;SDS011;447;51.332;6.778;2022-10-16T04:43:32;1.80;;;1.60;;
920;SDS011;447;51.332;6.778;2022-10-16T04:46:12;2.23;;;1.20;;
920;SDS011;447;51.332;6.778;2022-10-16T04:48:45;1.90;;;1.40;;
920;SDS011;447;51.332;6.778;2022-10-16T04:51:14;2.20;;;1.40;;
920;SDS011;447;51.332;6.778;2022-10-16T04:53:45;1.50;;;1.30;;
920;SDS011;447;51.332;6.778;2022-10-16T04:56:11;2.10;;;1.60;;
920;SDS011;447;51.332;6.778;2022-10-16T04:58:43;1.33;;;1.20;;
920;SDS011;447;51.332;6.778;2022-10-16T05:01:09;1.87;;;1.53;;
920;SDS011;447;51.332;6.778;2022-10-16T05:03:39;1.90;;;1.50;;
920;SDS011;447;51.332;6.778;2022-10-16T05:06:07;1.50;;;1.20;;
920;SDS011;447;51.332;6.778;2022-10-16T05:08:34;2.40;;;1.37;;
920;SDS011;447;51.332;6.778;2022-10-16T05:11:04;2.13;;;1.30;;
920;SDS011;447;51.332;6.778;2022-10-16T05:13:30;2.17;;;1.47;;
920;SDS011;447;51.332;6.778;2022-10-16T05:16:01;2.53;;;1.43;;
920;SDS011;447;51.332;6.778;2022-10-16T05:18:27;2.53;;;1.30;;
920;SDS011;447;51.332;6.778;2022-10-16T05:20:53;2.00;;;1.40;;
920;SDS011;447;51.332;6.778;2022-10-16T05:23:18;3.00;;;1.30;;
920;SDS011;447;51.332;6.778;2022-10-16T05:25:51;1.67;;;1.50;;
920;SDS011;447;51.332;6.778;2022-10-16T05:28:30;1.63;;;1.40;;
920;SDS011;447;51.332;6.778;2022-10-16T05:31:03;2.20;;;1.33;;
920;SDS011;447;51.332;6.778;2022-10-16T05:33:33;2.60;;;1.33;;
920;SDS011;447;51.332;6.778;2022-10-16T05:36:05;1.63;;;1.30;;
920;SDS011;447;51.332;6.778;2022-10-16T05:38:33;2.03;;;1.30;;
920;SDS011;447;51.332;6.778;2022-10-16T05:41:08;1.10;;;1.00;;
920;SDS011;447;51.332;6.778;2022-10-16T05:43:34;2.70;;;1.20;;
920;SDS011;447;51.332;6.778;2022-10-16T05:46:01;1.57;;;1.23;;
920;SDS011;447;51.332;6.778;2022-10-16T05:48:31;4.27;;;1.50;;
920;SDS011;447;51.332;6.778;2022-10-16T05:51:00;2.17;;;1.40;;
920;SDS011;447;51.332;6.778;2022-10-16T05:53:33;2.70;;;1.50;;
920;SDS011;447;51.332;6.778;2022-10-16T05:56:26;2.50;;;1.43;;
920;SDS011;447;51.332;6.778;2022-10-16T05:58:52;1.67;;;1.20;;
920;SDS011;447;51.332;6.778;2022-10-16T06:01:18;1.33;;;1.23;;
920;SDS011;447;51.332;6.778;2022-10-16T06:03:46;1.50;;;1.40;;
920;SDS011;447;51.332;6.778;2022-10-16T06:06:15;2.30;;;1.63;;
920;SDS011;447;51.332;6.778;2022-10-16T06:08:44;1.40;;;1.30;;
920;SDS011;447;51.332;6.778;2022-10-16T06:11:17;3.53;;;1.30;;
920;SDS011;447;51.332;6.778;2022-10-16T06:13:55;2.23;;;1.40;;
920;SDS011;447;51.332;6.778;2022-10-16T06:16:22;2.80;;;1.30;;
920;SDS011;447;51.332;6.778;2022-10-16T06:18:53;1.40;;;1.30;;
920;SDS011;447;51.332;6.778;2022-10-16T06:21:24;1.80;;;1.43;;
920;SDS011;447;51.332;6.778;2022-10-16T06:23:53;3.17;;;1.50;;
920;SDS011;447;51.332;6.778;2022-10-16T06:26:21;2.13;;;1.40;;
920;SDS011;447;51.332;6.778;2022-10-16T06:28:57;2.03;;;1.30;;
920;SDS011;447;51.332;6.778;2022-10-16T06:31:26;3.00;;;1.40;;
920;SDS011;447;51.332;6.778;2022-10-16T06:33:56;1.27;;;1.17;;
920;SDS011;447;51.332;6.778;2022-10-16T06:36:22;1.93;;;1.50;;
920;SDS011;447;51.332;6.778;2022-10-16T06:38:49;1.90;;;1.40;;
920;SDS011;447;51.332;6.778;2022-10-16T06:41:34;2.13;;;1.40;;
920;SDS011;447;51.332;6.778;2022-10-16T06:44:16;1.47;;;1.37;;
920;SDS011;447;51.332;6.778;2022-10-16T06:46:42;1.10;;;1.00;;
920;SDS011;447;51.332;6.778;2022-10-16T06:49:08;3.87;;;1.10;;
920;SDS011;447;51.332;6.778;2022-10-16T06:51:34;1.90;;;1.30;;
920;SDS011;447;51.332;6.778;2022-10-16T06:54:06;2.80;;;1.70;;
920;SDS011;447;51.332;6.778;2022-10-16T06:56:32;2.00;;;1.47;;
920;SDS011;447;51.332;6.778;2022-10-16T06:58:59;2.67;;;1.30;;
920;SDS011;447;51.332;6.778;2022-10-16T07:01:26;2.20;;;1.10;;
920;SDS011;447;51.332;6.778;2022-10-16T07:03:52;1.70;;;1.40;;
920;SDS011;447;51.332;6.778;2022-10-16T07:06:22;1.30;;;1.13;;
920;SDS011;447;51.332;6.778;2022-10-16T07:08:51;2.57;;;1.40;;
920;SDS011;447;51.332;6.778;2022-10-16T07:11:19;3.13;;;2.07;;
920;SDS011;447;51.332;6.778;2022-10-16T07:13:47;2.50;;;1.60;;
920;SDS011;447;51.332;6.778;2022-10-16T07:16:15;2.60;;;1.47;;
920;SDS011;447;51.332;6.778;2022-10-16T07:18:47;1.17;;;1.07;;
920;SDS011;447;51.332;6.778;2022-10-16T07:21:23;1.77;;;1.40;;
920;SDS011;447;51.332;6.778;2022-10-16T07:23:51;1.50;;;1.40;;
920;SDS011;447;51.332;6.778;2022-10-16T07:26:26;1.90;;;1.50;;
920;SDS011;447;51.332;6.778;2022-10-16T07:28:55;1.53;;;1.43;;
920;SDS011;447;51.332;6.778;2022-10-16T07:31:22;3.07;;;1.40;;
920;SDS011;447;51.332;6.778;2022-10-16T07:33:51;1.80;;;1.40;;
920;SDS011;447;51.332;6.778;2022-10-16T07:36:19;3.17;;;1.57;;
920;SDS011;447;51.332;6.778;2022-10-16T07:38:46;1.40;;;1.20;;
920;SDS011;447;51.332;6.778;2022-10-16T07:41:14;1.40;;;1.30;;
920;SDS011;447;51.332;6.778;2022-10-16T07:43:45;1.50;;;1.20;;
920;SDS011;447;51.332;6.778;2022-10-16T07:46:15;2.63;;;1.43;;
920;SDS011;447;51.332;6.778;2022-10-16T07:48:42;1.77;;;1.27;;
920;SDS011;447;51.332;6.778;2022-10-16T07:51:14;1.60;;;1.50;;
920;SDS011;447;51.332;6.778;2022-10-16T07:53:42;1.60;;;1.13;;
920;SDS011;447;51.332;6.778;2022-10-16T07:56:08;3.57;;;1.70;;
920;SDS011;447;51.332;6.778;2022-10-16T07:58:35;2.70;;;1.90;;
920;SDS011;447;51.332;6.778;2022-10-16T08:01:06;3.87;;;1.57;;
920;SDS011;447;51.332;6.778;2022-10-16T08:03:36;1.60;;;1.50;;
920;SDS011;447;51.332;6.778;2022-10-16T08:06:02;4.20;;;1.50;;
920;SDS011;447;51.332;6.778;2022-10-16T08:08:29;2.10;;;1.60;;
920;SDS011;447;51.332;6.778;2022-10-16T08:10:55;1.87;;;1.63;;
920;SDS011;447;51.332;6.778;2022-10-16T08:13:21;1.40;;;1.30;;
920;SDS011;447;51.332;6.778;2022-10-16T08:15:48;2.40;;;1.53;;
920;SDS011;447;51.332;6.778;2022-10-16T08:18:51;2.00;;;1.77;;
920;SDS011;447;51.332;6.778;2022-10-16T08:21:21;1.50;;;1.40;;
920;SDS011;447;51.332;6.778;2022-10-16T08:23:54;1.57;;;1.47;;
920;SDS011;447;51.332;6.778;2022-10-16T08:26:20;1.80;;;1.57;;
920;SDS011;447;51.332;6.778;2022-10-16T08:28:51;5.73;;;2.13;;
920;SDS011;447;51.332;6.778;2022-10-16T08:31:20;1.83;;;1.33;;
920;SDS011;447;51.332;6.778;2022-10-16T08:33:47;1.63;;;1.30;;
920;SDS011;447;51.332;6.778;2022-10-16T08:36:13;3.10;;;1.70;;
920;SDS011;447;51.332;6.778;2022-10-16T08:38:40;1.97;;;1.50;;
920;SDS011;447;51.332;6.778;2022-10-16T08:47:12;1.80;;;1.70;;
920;SDS011;447;51.332;6.778;2022-10-16T08:49:53;1.67;;;1.57;;
920;SDS011;447;51.332;6.778;2022-10-16T08:52:24;1.60;;;1.50;;
920;SDS011;447;51.332;6.778;2022-10-16T08:54:54;2.57;;;1.70;;
920;SDS011;447;51.332;6.778;2022-10-16T08:57:22;2.27;;;1.50;;
920;SDS011;447;51.332;6.778;2022-10-16T08:59:51;1.57;;;1.30;;
920;SDS011;447;51.332;6.778;2022-10-16T09:10:17;6.83;;;1.67;;
920;SDS011;447;51.332;6.778;2022-10-16T09:19:15;4.43;;;1.60;;
920;SDS011;447;51.332;6.778;2022-10-16T09:21:46;2.43;;;1.80;;
920;SDS011;447;51.332;6.778;2022-10-16T09:24:20;2.47;;;1.70;;
920;SDS011;447;51.332;6.778;2022-10-16T09:26:47;4.33;;;1.90;;
920;SDS011;447;51.332;6.778;2022-10-16T09:29:50;3.47;;;1.40;;
920;SDS011;447;51.332;6.778;2022-10-16T09:32:17;2.23;;;1.50;;
920;SDS011;447;51.332;6.778;2022-10-16T09:34:55;3.33;;;1.57;;
920;SDS011;447;51.332;6.778;2022-10-16T09:37:22;4.33;;;1.87;;
920;SDS011;447;51.332;6.778;2022-10-16T09:39:52;2.47;;;1.30;;
920;SDS011;447;51.332;6.778;2022-10-16T09:42:20;2.97;;;1.60;;
920;SDS011;447;51.332;6.778;2022-10-16T09:44:57;1.53;;;1.20;;
920;SDS011;447;51.332;6.778;2022-10-16T09:47:29;2.70;;;1.37;;
920;SDS011;447;51.332;6.778;2022-10-16T09:50:15;2.37;;;1.50;;
920;SDS011;447;51.332;6.778;2022-10-16T09:52:47;3.60;;;1.40;;
920;SDS011;447;51.332;6.778;2022-10-16T09:55:18;1.77;;;1.17;;
920;SDS011;447;51.332;6.778;2022-10-16T09:57:50;1.70;;;1.50;;
920;SDS011;447;51.332;6.778;2022-10-16T10:00:20;1.97;;;1.07;;
920;SDS011;447;51.332;6.778;2022-10-16T10:02:50;1.50;;;1.40;;
920;SDS011;447;51.332;6.778;2022-10-16T10:05:18;1.40;;;1.20;;
920;SDS011;447;51.332;6.778;2022-10-16T10:07:57;4.13;;;1.40;;
920;SDS011;447;51.332;6.778;2022-10-16T10:10:28;3.43;;;1.20;;
920;SDS011;447;51.332;6.778;2022-10-16T10:12:59;2.10;;;1.40;;
920;SDS011;447;51.332;6.778;2022-10-16T10:15:29;1.40;;;1.27;;
920;SDS011;447;51.332;6.778;2022-10-16T10:17:59;3.00;;;1.30;;
920;SDS011;447;51.332;6.778;2022-10-16T10:20:31;2.80;;;1.30;;
920;SDS011;447;51.332;6.778;2022-10-16T10:23:20;1.33;;;1.23;;
920;SDS011;447;51.332;6.778;2022-10-16T10:25:59;4.13;;;1.77;;
920;SDS011;447;51.332;6.778;2022-10-16T10:31:47;1.77;;;1.37;;
920;SDS011;447;51.332;6.778;2022-10-16T10:34:33;2.80;;;1.30;;
920;SDS011;447;51.332;6.778;2022-10-16T10:37:17;2.20;;;1.07;;
920;SDS011;447;51.332;6.778;2022-10-16T10:40:32;2.50;;;1.10;;
920;SDS011;447;51.332;6.778;2022-10-16T10:57:43;1.30;;;0.90;;
920;SDS011;447;51.332;6.778;2022-10-16T11:03:27;2.17;;;1.10;;
920;SDS011;447;51.332;6.778;2022-10-16T11:06:33;2.10;;;1.27;;
920;SDS011;447;51.332;6.778;2022-10-16T11:09:25;3.90;;;1.40;;
920;SDS011;447;51.332;6.778;2022-10-16T11:12:05;1.17;;;0.87;;
920;SDS011;447;51.332;6.778;2022-10-16T11:17:15;3.17;;;1.07;;
920;SDS011;447;51.332;6.778;2022-10-16T11:22:30;5.10;;;1.57;;
920;SDS011;447;51.332;6.778;2022-10-16T11:30:26;3.73;;;1.20;;
920;SDS011;447;51.332;6.778;2022-10-16T11:33:00;3.07;;;1.07;;
920;SDS011;447;51.332;6.778;2022-10-16T11:41:22;3.83;;;1.43;;
920;SDS011;447;51.332;6.778;2022-10-16T11:44:06;4.40;;;1.17;;
920;SDS011;447;51.332;6.778;2022-10-16T11:47:16;1.70;;;1.10;;
920;SDS011;447;51.332;6.778;2022-10-16T11:50:05;3.70;;;1.30;;
920;SDS011;447;51.332;6.778;2022-10-16T11:55:45;6.40;;;1.20;;
920;SDS011;447;51.332;6.778;2022-10-16T12:03:35;1.40;;;1.07;;
920;SDS011;447;51.332;6.778;2022-10-16T12:08:59;3.00;;;1.27;;
920;SDS011;447;51.332;6.778;2022-10-16T12:14:07;5.00;;;1.53;;
920;SDS011;447;51.332;6.778;2022-10-16T12:17:00;3.00;;;1.30;;
920;SDS011;447;51.332;6.778;2022-10-16T12:19:28;5.53;;;1.40;;
920;SDS011;447;51.332;6.778;2022-10-16T12:21:58;1.33;;;1.10;;
920;SDS011;447;51.332;6.778;2022-10-16T12:27:03;2.20;;;1.10;;
920;SDS011;447;51.332;6.778;2022-10-16T12:29:45;2.93;;;1.37;;
920;SDS011;447;51.332;6.778;2022-10-16T12:32:26;3.10;;;1.50;;
920;SDS011;447;51.332;6.778;2022-10-16T12:35:00;1.50;;;1.00;;
920;SDS011;447;51.332;6.778;2022-10-16T12:37:38;2.93;;;1.30;;
920;SDS011;447;51.332;6.778;2022-10-16T12:40:11;2.73;;;1.10;;
920;SDS011;447;51.332;6.778;2022-10-16T12:42:40;4.83;;;1.20;;
920;SDS011;447;51.332;6.778;2022-10-16T12:45:23;1.70;;;1.13;;
920;SDS011;447;51.332;6.778;2022-10-16T12:48:02;1.87;;;1.30;;
920;SDS011;447;51.332;6.778;2022-10-16T12:50:45;1.70;;;1.13;;
920;SDS011;447;51.332;6.778;2022-10-16T12:53:24;1.60;;;1.00;;
920;SDS011;447;51.332;6.778;2022-10-16T12:55:55;2.43;;;0.90;;
920;SDS011;447;51.332;6.778;2022-10-16T12:58:30;1.23;;;0.93;;
920;SDS011;447;51.332;6.778;2022-10-16T13:12:16;1.40;;;1.00;;
920;SDS011;447;51.332;6.778;2022-10-16T13:23:31;1.87;;;1.17;;
920;SDS011;447;51.332;6.778;2022-10-16T13:26:39;3.33;;;1.00;;
920;SDS011;447;51.332;6.778;2022-10-16T13:29:05;2.07;;;1.17;;
920;SDS011;447;51.332;6.778;2022-10-16T13:31:36;3.53;;;1.20;;
920;SDS011;447;51.332;6.778;2022-10-16T13:34:11;1.60;;;1.00;;
920;SDS011;447;51.332;6.778;2022-10-16T13:36:44;2.80;;;1.10;;
920;SDS011;447;51.332;6.778;2022-10-16T13:44:44;1.77;;;0.93;;
920;SDS011;447;51.332;6.778;2022-10-16T13:47:23;1.67;;;1.00;;
920;SDS011;447;51.332;6.778;2022-10-16T13:52:30;2.10;;;1.00;;
920;SDS011;447;51.332;6.778;2022-10-16T13:55:22;2.80;;;1.07;;
920;SDS011;447;51.332;6.778;2022-10-16T13:57:48;3.20;;;1.20;;
920;SDS011;447;51.332;6.778;2022-10-16T14:00:18;2.10;;;0.80;;
920;SDS011;447;51.332;6.778;2022-10-16T14:02:55;3.47;;;0.87;;
920;SDS011;447;51.332;6.778;2022-10-16T14:05:29;2.10;;;1.10;;
920;SDS011;447;51.332;6.778;2022-10-16T14:07:58;3.03;;;1.00;;
920;SDS011;447;51.332;6.778;2022-10-16T14:10:28;2.30;;;1.30;;
920;SDS011;447;51.332;6.778;2022-10-16T14:15:29;1.27;;;0.90;;
920;SDS011;447;51.332;6.778;2022-10-16T14:17:56;3.07;;;1.10;;
920;SDS011;447;51.332;6.778;2022-10-16T14:20:30;1.43;;;0.70;;
920;SDS011;447;51.332;6.778;2022-10-16T14:23:18;3.87;;;1.17;;
920;SDS011;447;51.332;6.778;2022-10-16T14:25:51;2.67;;;1.00;;
920;SDS011;447;51.332;6.778;2022-10-16T14:28:32;1.53;;;1.00;;
920;SDS011;447;51.332;6.778;2022-10-16T14:31:01;2.03;;;0.93;;
920;SDS011;447;51.332;6.778;2022-10-16T14:33:42;2.13;;;0.90;;
920;SDS011;447;51.332;6.778;2022-10-16T14:36:12;3.90;;;1.13;;
920;SDS011;447;51.332;6.778;2022-10-16T14:41:25;3.23;;;0.87;;
920;SDS011;447;51.332;6.778;2022-10-16T14:43:58;1.93;;;0.90;;
920;SDS011;447;51.332;6.778;2022-10-16T14:46:38;3.63;;;1.43;;
920;SDS011;447;51.332;6.778;2022-10-16T14:49:19;2.73;;;1.03;;
920;SDS011;447;51.332;6.778;2022-10-16T14:51:46;1.77;;;0.93;;
920;SDS011;447;51.332;6.778;2022-10-16T14:54:13;2.43;;;1.40;;
920;SDS011;447;51.332;6.778;2022-10-16T14:59:23;3.10;;;1.13;;
920;SDS011;447;51.332;6.778;2022-10-16T15:01:54;3.60;;;2.27;;
920;SDS011;447;51.332;6.778;2022-10-16T15:04:25;1.47;;;1.10;;
920;SDS011;447;51.332;6.778;2022-10-16T15:06:52;1.00;;;0.90;;
920;SDS011;447;51.332;6.778;2022-10-16T15:09:18;2.17;;;1.00;;
920;SDS011;447;51.332;6.778;2022-10-16T15:11:47;2.40;;;0.90;;
920;SDS011;447;51.332;6.778;2022-10-16T15:14:18;3.33;;;1.40;;
920;SDS011;447;51.332;6.778;2022-10-16T15:16:48;3.87;;;1.27;;
920;SDS011;447;51.332;6.778;2022-10-16T15:19:17;3.53;;;1.00;;
920;SDS011;447;51.332;6.778;2022-10-16T15:21:46;10.53;;;1.13;;
920;SDS011;447;51.332;6.778;2022-10-16T15:24:35;4.83;;;1.20;;
920;SDS011;447;51.332;6.778;2022-10-16T15:27:01;2.00;;;1.00;;
920;SDS011;447;51.332;6.778;2022-10-16T15:29:29;3.13;;;1.10;;
920;SDS011;447;51.332;6.778;2022-10-16T15:31:58;5.40;;;1.30;;
920;SDS011;447;51.332;6.778;2022-10-16T15:34:26;4.13;;;1.27;;
920;SDS011;447;51.332;6.778;2022-10-16T15:36:52;4.23;;;1.43;;
920;SDS011;447;51.332;6.778;2022-10-16T15:39:26;3.23;;;0.97;;
920;SDS011;447;51.332;6.778;2022-10-16T15:41:54;2.10;;;1.27;;
920;SDS011;447;51.332;6.778;2022-10-16T15:44:22;5.07;;;1.50;;
920;SDS011;447;51.332;6.778;2022-10-16T15:46:50;1.40;;;1.13;;
920;SDS011;447;51.332;6.778;2022-10-16T15:49:22;2.60;;;1.40;;
920;SDS011;447;51.332;6.778;2022-10-16T15:51:53;3.37;;;1.10;;
920;SDS011;447;51.332;6.778;2022-10-16T15:54:21;4.17;;;1.10;;
920;SDS011;447;51.332;6.778;2022-10-16T15:56:48;1.70;;;1.20;;
920;SDS011;447;51.332;6.778;2022-10-16T15:59:19;2.70;;;1.27;;
920;SDS011;447;51.332;6.778;2022-10-16T16:01:45;3.83;;;1.40;;
920;SDS011;447;51.332;6.778;2022-10-16T16:04:11;2.33;;;1.30;;
920;SDS011;447;51.332;6.778;2022-10-16T16:06:40;2.73;;;1.10;;
920;SDS011;447;51.332;6.778;2022-10-16T16:09:13;1.97;;;1.27;;
920;SDS011;447;51.332;6.778;2022-10-16T16:11:39;3.83;;;1.40;;
920;SDS011;447;51.332;6.778;2022-10-16T16:14:14;1.20;;;0.83;;
920;SDS011;447;51.332;6.778;2022-10-16T16:16:43;3.00;;;1.20;;
920;SDS011;447;51.332;6.778;2022-10-16T16:19:09;2.10;;;1.07;;
920;SDS011;447;51.332;6.778;2022-10-16T16:21:35;3.53;;;1.30;;
920;SDS011;447;51.332;6.778;2022-10-16T16:24:01;2.90;;;1.10;;
920;SDS011;447;51.332;6.778;2022-10-16T16:26:36;2.70;;;1.30;;
920;SDS011;447;51.332;6.778;2022-10-16T16:29:08;2.63;;;1.10;;
920;SDS011;447;51.332;6.778;2022-10-16T16:31:39;2.07;;;1.17;;
920;SDS011;447;51.332;6.778;2022-10-16T16:34:07;0.90;;;0.70;;
920;SDS011;447;51.332;6.778;2022-10-16T16:36:34;2.50;;;1.20;;
920;SDS011;447;51.332;6.778;2022-10-16T16:39:01;4.30;;;1.00;;
920;SDS011;447;51.332;6.778;2022-10-16T16:41:27;2.20;;;1.00;;
920;SDS011;447;51.332;6.778;2022-10-16T16:44:03;1.00;;;0.90;;
920;SDS011;447;51.332;6.778;2022-10-16T16:46:36;4.50;;;1.00;;
920;SDS011;447;51.332;6.778;2022-10-16T16:49:11;4.80;;;1.20;;
920;SDS011;447;51.332;6.778;2022-10-16T16:51:38;2.20;;;1.30;;
920;SDS011;447;51.332;6.778;2022-10-16T16:54:04;5.60;;;1.53;;
920;SDS011;447;51.332;6.778;2022-10-16T16:56:34;2.17;;;1.23;;
920;SDS011;447;51.332;6.778;2022-10-16T16:59:06;1.87;;;1.27;;
920;SDS011;447;51.332;6.778;2022-10-16T17:01:36;1.33;;;0.90;;
920;SDS011;447;51.332;6.778;2022-10-16T17:04:20;3.60;;;1.37;;
920;SDS011;447;51.332;6.778;2022-10-16T17:06:47;1.50;;;1.10;;
920;SDS011;447;51.332;6.778;2022-10-16T17:09:17;1.80;;;1.37;;
920;SDS011;447;51.332;6.778;2022-10-16T17:11:44;1.83;;;1.13;;
920;SDS011;447;51.332;6.778;2022-10-16T17:14:15;4.00;;;1.60;;
920;SDS011;447;51.332;6.778;2022-10-16T17:16:41;3.30;;;1.00;;
920;SDS011;447;51.332;6.778;2022-10-16T17:19:14;1.83;;;1.37;;
920;SDS011;447;51.332;6.778;2022-10-16T17:21:41;2.80;;;1.17;;
920;SDS011;447;51.332;6.778;2022-10-16T17:24:09;2.27;;;1.30;;
920;SDS011;447;51.332;6.778;2022-10-16T17:26:37;2.40;;;1.43;;
920;SDS011;447;51.332;6.778;2022-10-16T17:29:09;2.27;;;1.50;;
920;SDS011;447;51.332;6.778;2022-10-16T17:31:39;2.17;;;1.60;;
920;SDS011;447;51.332;6.778;2022-10-16T17:34:08;1.97;;;1.43;;
920;SDS011;447;51.332;6.778;2022-10-16T17:36:36;5.27;;;1.97;;
920;SDS011;447;51.332;6.778;2022-10-16T17:39:05;2.97;;;2.20;;
920;SDS011;447;51.332;6.778;2022-10-16T17:41:32;3.00;;;2.30;;
920;SDS011;447;51.332;6.778;2022-10-16T17:43:59;2.73;;;1.97;;
920;SDS011;447;51.332;6.778;2022-10-16T17:46:30;5.00;;;2.00;;
920;SDS011;447;51.332;6.778;2022-10-16T17:49:01;2.40;;;1.60;;
920;SDS011;447;51.332;6.778;2022-10-16T17:51:44;2.60;;;1.50;;
920;SDS011;447;51.332;6.778;2022-10-16T17:54:13;1.70;;;1.57;;
920;SDS011;447;51.332;6.778;2022-10-16T17:56:39;2.30;;;1.67;;
920;SDS011;447;51.332;6.778;2022-10-16T17:59:08;2.00;;;1.53;;
920;SDS011;447;51.332;6.778;2022-10-16T18:01:38;1.63;;;1.47;;
920;SDS011;447;51.332;6.778;2022-10-16T18:04:06;2.47;;;1.63;;
920;SDS011;447;51.332;6.778;2022-10-16T18:06:38;5.23;;;2.10;;
920;SDS011;447;51.332;6.778;2022-10-16T18:09:11;4.07;;;2.20;;
920;SDS011;447;51.332;6.778;2022-10-16T18:11:41;2.67;;;1.30;;
920;SDS011;447;51.332;6.778;2022-10-16T18:14:07;4.80;;;2.40;;
920;SDS011;447;51.332;6.778;2022-10-16T18:16:37;3.80;;;1.70;;